Litroe, Louisiana
Current Conditions -  °F | °C
As of 12:35 PM on Sunday 23 Nov 2014 (Local Time) from KBQP Reporting Station
Moderate Rain Moderate Rain  
Wind Chill: 62°   Ceiling: 600
Heat Index: 62°   Visibility: 10mi
Dew Point: 61°   Wind: 10mph
Humidity: 97%   Direction: 240°WSW
Pressure: 29.48"   Gusts: NA
Location:  32.906°N, 92.243°W
Report Text: KBQP 231835Z AUTO 24009KT 10SM RA OVC006 17/16 A2948 RMK AO2 P0003 T01660161
Loading
Personal Weather Stations






























Interactive Weather Map New forecast layout! Learn more

10-Day Weather Forecast

Advertisements
Track Severe Weather on mobile